sensor_id;sensor_type;location;lat;lon;timestamp;P1;durP1;ratioP1;P2;durP2;ratioP2
12122;SDS011;6125;59.628;17.852;2022-12-18T00:00:59;16.23;;;9.07;;
12122;SDS011;6125;59.628;17.852;2022-12-18T00:03:30;19.83;;;9.93;;
12122;SDS011;6125;59.628;17.852;2022-12-18T00:05:58;19.90;;;9.73;;
12122;SDS011;6125;59.628;17.852;2022-12-18T00:08:26;19.60;;;9.67;;
12122;SDS011;6125;59.628;17.852;2022-12-18T00:10:54;19.73;;;8.87;;
12122;SDS011;6125;59.628;17.852;2022-12-18T00:13:21;17.07;;;9.10;;
12122;SDS011;6125;59.628;17.852;2022-12-18T00:15:50;16.73;;;9.37;;
12122;SDS011;6125;59.628;17.852;2022-12-18T00:18:17;15.80;;;9.00;;
12122;SDS011;6125;59.628;17.852;2022-12-18T00:20:44;16.90;;;8.20;;
12122;SDS011;6125;59.628;17.852;2022-12-18T00:23:11;18.70;;;8.77;;
12122;SDS011;6125;59.628;17.852;2022-12-18T00:25:40;16.83;;;9.23;;
12122;SDS011;6125;59.628;17.852;2022-12-18T00:28:07;17.67;;;8.67;;
12122;SDS011;6125;59.628;17.852;2022-12-18T00:30:34;14.77;;;7.93;;
12122;SDS011;6125;59.628;17.852;2022-12-18T00:33:02;20.17;;;8.53;;
12122;SDS011;6125;59.628;17.852;2022-12-18T00:35:29;21.20;;;9.07;;
12122;SDS011;6125;59.628;17.852;2022-12-18T00:37:57;18.10;;;9.30;;
12122;SDS011;6125;59.628;17.852;2022-12-18T00:40:24;18.43;;;9.67;;
12122;SDS011;6125;59.628;17.852;2022-12-18T00:42:51;20.90;;;9.03;;
12122;SDS011;6125;59.628;17.852;2022-12-18T00:45:23;17.00;;;9.10;;
12122;SDS011;6125;59.628;17.852;2022-12-18T00:47:51;15.10;;;8.27;;
12122;SDS011;6125;59.628;17.852;2022-12-18T00:50:20;17.37;;;9.57;;
12122;SDS011;6125;59.628;17.852;2022-12-18T00:52:48;21.50;;;10.03;;
12122;SDS011;6125;59.628;17.852;2022-12-18T00:55:15;14.83;;;7.90;;
12122;SDS011;6125;59.628;17.852;2022-12-18T00:57:42;19.37;;;9.50;;
12122;SDS011;6125;59.628;17.852;2022-12-18T01:00:10;15.73;;;8.83;;
12122;SDS011;6125;59.628;17.852;2022-12-18T01:02:38;16.10;;;8.47;;
12122;SDS011;6125;59.628;17.852;2022-12-18T01:05:06;15.20;;;8.37;;
12122;SDS011;6125;59.628;17.852;2022-12-18T01:07:34;17.07;;;8.40;;
12122;SDS011;6125;59.628;17.852;2022-12-18T01:10:01;22.17;;;8.87;;
12122;SDS011;6125;59.628;17.852;2022-12-18T01:12:28;15.33;;;8.27;;
12122;SDS011;6125;59.628;17.852;2022-12-18T01:14:55;15.03;;;8.20;;
12122;SDS011;6125;59.628;17.852;2022-12-18T01:17:22;17.37;;;7.97;;
12122;SDS011;6125;59.628;17.852;2022-12-18T01:19:49;15.30;;;8.03;;
12122;SDS011;6125;59.628;17.852;2022-12-18T01:22:17;22.47;;;8.67;;
12122;SDS011;6125;59.628;17.852;2022-12-18T01:24:45;13.60;;;8.17;;
12122;SDS011;6125;59.628;17.852;2022-12-18T01:27:12;13.47;;;8.07;;
12122;SDS011;6125;59.628;17.852;2022-12-18T01:29:39;16.00;;;8.30;;
12122;SDS011;6125;59.628;17.852;2022-12-18T01:32:07;20.00;;;7.97;;
12122;SDS011;6125;59.628;17.852;2022-12-18T01:34:34;15.73;;;8.83;;
12122;SDS011;6125;59.628;17.852;2022-12-18T01:37:02;16.37;;;9.10;;
12122;SDS011;6125;59.628;17.852;2022-12-18T01:39:29;14.90;;;7.43;;
12122;SDS011;6125;59.628;17.852;2022-12-18T01:41:58;15.00;;;8.77;;
12122;SDS011;6125;59.628;17.852;2022-12-18T01:44:54;18.47;;;8.87;;
12122;SDS011;6125;59.628;17.852;2022-12-18T01:47:28;13.53;;;7.70;;
12122;SDS011;6125;59.628;17.852;2022-12-18T01:50:09;15.10;;;7.97;;
12122;SDS011;6125;59.628;17.852;2022-12-18T01:52:39;14.60;;;7.63;;
12122;SDS011;6125;59.628;17.852;2022-12-18T01:55:08;15.17;;;7.40;;
12122;SDS011;6125;59.628;17.852;2022-12-18T01:57:38;13.73;;;7.40;;
12122;SDS011;6125;59.628;17.852;2022-12-18T02:00:07;14.20;;;7.77;;
12122;SDS011;6125;59.628;17.852;2022-12-18T02:02:36;20.83;;;8.57;;
12122;SDS011;6125;59.628;17.852;2022-12-18T02:05:05;17.83;;;7.67;;
12122;SDS011;6125;59.628;17.852;2022-12-18T02:07:36;15.60;;;7.77;;
12122;SDS011;6125;59.628;17.852;2022-12-18T02:10:11;15.37;;;8.70;;
12122;SDS011;6125;59.628;17.852;2022-12-18T02:12:47;16.50;;;7.93;;
12122;SDS011;6125;59.628;17.852;2022-12-18T02:15:24;15.13;;;8.23;;
12122;SDS011;6125;59.628;17.852;2022-12-18T02:17:56;16.47;;;8.40;;
12122;SDS011;6125;59.628;17.852;2022-12-18T02:20:31;16.90;;;8.40;;
12122;SDS011;6125;59.628;17.852;2022-12-18T02:23:04;12.17;;;7.53;;
12122;SDS011;6125;59.628;17.852;2022-12-18T02:25:41;16.30;;;7.73;;
12122;SDS011;6125;59.628;17.852;2022-12-18T02:28:25;20.93;;;8.63;;
12122;SDS011;6125;59.628;17.852;2022-12-18T02:30:56;13.77;;;7.83;;
12122;SDS011;6125;59.628;17.852;2022-12-18T02:33:26;13.70;;;8.43;;
12122;SDS011;6125;59.628;17.852;2022-12-18T02:35:55;16.23;;;9.03;;
12122;SDS011;6125;59.628;17.852;2022-12-18T02:38:25;16.17;;;8.83;;
12122;SDS011;6125;59.628;17.852;2022-12-18T02:40:54;13.63;;;7.53;;
12122;SDS011;6125;59.628;17.852;2022-12-18T02:43:23;14.80;;;7.87;;
12122;SDS011;6125;59.628;17.852;2022-12-18T02:45:50;13.17;;;7.43;;
12122;SDS011;6125;59.628;17.852;2022-12-18T02:48:21;12.77;;;8.00;;
12122;SDS011;6125;59.628;17.852;2022-12-18T02:50:51;14.27;;;8.43;;
12122;SDS011;6125;59.628;17.852;2022-12-18T02:53:27;14.07;;;7.73;;
12122;SDS011;6125;59.628;17.852;2022-12-18T02:56:03;12.90;;;7.80;;
12122;SDS011;6125;59.628;17.852;2022-12-18T02:58:37;16.97;;;7.60;;
12122;SDS011;6125;59.628;17.852;2022-12-18T03:01:13;17.00;;;8.40;;
12122;SDS011;6125;59.628;17.852;2022-12-18T03:03:43;14.27;;;8.23;;
12122;SDS011;6125;59.628;17.852;2022-12-18T03:06:15;16.50;;;7.97;;
12122;SDS011;6125;59.628;17.852;2022-12-18T03:08:47;13.13;;;7.40;;
12122;SDS011;6125;59.628;17.852;2022-12-18T03:11:18;17.50;;;7.27;;
12122;SDS011;6125;59.628;17.852;2022-12-18T03:14:05;16.57;;;7.37;;
12122;SDS011;6125;59.628;17.852;2022-12-18T03:16:33;15.43;;;8.27;;
12122;SDS011;6125;59.628;17.852;2022-12-18T03:19:03;20.63;;;8.63;;
12122;SDS011;6125;59.628;17.852;2022-12-18T03:21:34;16.57;;;7.50;;
12122;SDS011;6125;59.628;17.852;2022-12-18T03:24:04;16.50;;;8.03;;
12122;SDS011;6125;59.628;17.852;2022-12-18T03:26:35;13.67;;;7.63;;
12122;SDS011;6125;59.628;17.852;2022-12-18T03:29:07;16.13;;;8.13;;
12122;SDS011;6125;59.628;17.852;2022-12-18T03:31:36;15.03;;;8.27;;
12122;SDS011;6125;59.628;17.852;2022-12-18T03:34:08;15.93;;;7.87;;
12122;SDS011;6125;59.628;17.852;2022-12-18T03:36:39;14.77;;;7.57;;
12122;SDS011;6125;59.628;17.852;2022-12-18T03:39:06;15.47;;;8.30;;
12122;SDS011;6125;59.628;17.852;2022-12-18T03:41:37;14.20;;;7.60;;
12122;SDS011;6125;59.628;17.852;2022-12-18T03:44:11;14.33;;;8.07;;
12122;SDS011;6125;59.628;17.852;2022-12-18T03:46:41;13.17;;;7.60;;
12122;SDS011;6125;59.628;17.852;2022-12-18T03:49:17;14.40;;;7.70;;
12122;SDS011;6125;59.628;17.852;2022-12-18T03:51:50;17.60;;;8.03;;
12122;SDS011;6125;59.628;17.852;2022-12-18T03:54:21;18.63;;;8.77;;
12122;SDS011;6125;59.628;17.852;2022-12-18T03:56:58;12.83;;;7.80;;
12122;SDS011;6125;59.628;17.852;2022-12-18T03:59:28;12.83;;;7.70;;
12122;SDS011;6125;59.628;17.852;2022-12-18T04:01:56;12.47;;;7.07;;
12122;SDS011;6125;59.628;17.852;2022-12-18T04:04:25;16.77;;;7.70;;
12122;SDS011;6125;59.628;17.852;2022-12-18T04:06:55;13.83;;;7.43;;
12122;SDS011;6125;59.628;17.852;2022-12-18T04:09:22;11.67;;;7.23;;
12122;SDS011;6125;59.628;17.852;2022-12-18T04:11:51;12.30;;;7.40;;
12122;SDS011;6125;59.628;17.852;2022-12-18T04:14:18;15.83;;;7.30;;
12122;SDS011;6125;59.628;17.852;2022-12-18T04:16:45;14.23;;;8.47;;
12122;SDS011;6125;59.628;17.852;2022-12-18T04:19:12;13.33;;;7.23;;
12122;SDS011;6125;59.628;17.852;2022-12-18T04:21:39;13.73;;;7.00;;
12122;SDS011;6125;59.628;17.852;2022-12-18T04:24:06;14.87;;;7.63;;
12122;SDS011;6125;59.628;17.852;2022-12-18T04:26:33;15.67;;;7.30;;
12122;SDS011;6125;59.628;17.852;2022-12-18T04:29:01;13.60;;;7.97;;
12122;SDS011;6125;59.628;17.852;2022-12-18T04:31:29;12.57;;;7.40;;
12122;SDS011;6125;59.628;17.852;2022-12-18T04:33:55;14.53;;;7.27;;
12122;SDS011;6125;59.628;17.852;2022-12-18T04:36:23;13.67;;;6.93;;
12122;SDS011;6125;59.628;17.852;2022-12-18T04:38:53;15.67;;;7.53;;
12122;SDS011;6125;59.628;17.852;2022-12-18T04:41:20;13.63;;;7.50;;
12122;SDS011;6125;59.628;17.852;2022-12-18T04:43:47;15.80;;;7.43;;
12122;SDS011;6125;59.628;17.852;2022-12-18T04:46:16;14.83;;;7.40;;
12122;SDS011;6125;59.628;17.852;2022-12-18T04:48:44;13.33;;;7.30;;
12122;SDS011;6125;59.628;17.852;2022-12-18T04:51:12;13.53;;;7.27;;
12122;SDS011;6125;59.628;17.852;2022-12-18T04:53:39;12.83;;;7.70;;
12122;SDS011;6125;59.628;17.852;2022-12-18T04:56:06;13.80;;;7.50;;
12122;SDS011;6125;59.628;17.852;2022-12-18T04:58:36;10.77;;;6.37;;
12122;SDS011;6125;59.628;17.852;2022-12-18T05:01:04;14.73;;;7.07;;
12122;SDS011;6125;59.628;17.852;2022-12-18T05:03:34;12.57;;;7.33;;
12122;SDS011;6125;59.628;17.852;2022-12-18T05:06:04;14.30;;;7.67;;
12122;SDS011;6125;59.628;17.852;2022-12-18T05:08:32;13.77;;;6.93;;
12122;SDS011;6125;59.628;17.852;2022-12-18T05:10:59;13.13;;;7.87;;
12122;SDS011;6125;59.628;17.852;2022-12-18T05:13:27;12.37;;;7.07;;
12122;SDS011;6125;59.628;17.852;2022-12-18T05:15:54;13.70;;;6.53;;
12122;SDS011;6125;59.628;17.852;2022-12-18T05:18:21;13.57;;;7.07;;
12122;SDS011;6125;59.628;17.852;2022-12-18T05:20:50;11.73;;;6.63;;
12122;SDS011;6125;59.628;17.852;2022-12-18T05:23:18;15.83;;;7.83;;
12122;SDS011;6125;59.628;17.852;2022-12-18T05:25:46;11.50;;;6.70;;
12122;SDS011;6125;59.628;17.852;2022-12-18T05:28:16;13.30;;;7.30;;
12122;SDS011;6125;59.628;17.852;2022-12-18T05:30:46;12.13;;;7.03;;
12122;SDS011;6125;59.628;17.852;2022-12-18T05:33:14;12.60;;;7.43;;
12122;SDS011;6125;59.628;17.852;2022-12-18T05:35:41;12.00;;;7.03;;
12122;SDS011;6125;59.628;17.852;2022-12-18T05:38:09;14.07;;;7.63;;
12122;SDS011;6125;59.628;17.852;2022-12-18T05:40:41;11.87;;;6.73;;
12122;SDS011;6125;59.628;17.852;2022-12-18T05:43:08;14.20;;;6.73;;
12122;SDS011;6125;59.628;17.852;2022-12-18T05:45:36;12.27;;;7.23;;
12122;SDS011;6125;59.628;17.852;2022-12-18T05:48:03;12.13;;;6.87;;
12122;SDS011;6125;59.628;17.852;2022-12-18T05:50:33;13.60;;;7.17;;
12122;SDS011;6125;59.628;17.852;2022-12-18T05:53:01;13.27;;;6.20;;
12122;SDS011;6125;59.628;17.852;2022-12-18T05:55:29;12.10;;;6.37;;
12122;SDS011;6125;59.628;17.852;2022-12-18T05:57:59;14.20;;;7.37;;
12122;SDS011;6125;59.628;17.852;2022-12-18T06:00:25;12.97;;;6.80;;
12122;SDS011;6125;59.628;17.852;2022-12-18T06:02:52;12.10;;;6.73;;
12122;SDS011;6125;59.628;17.852;2022-12-18T06:05:19;11.63;;;7.00;;
12122;SDS011;6125;59.628;17.852;2022-12-18T06:07:46;11.77;;;6.30;;
12122;SDS011;6125;59.628;17.852;2022-12-18T06:10:13;12.60;;;6.80;;
12122;SDS011;6125;59.628;17.852;2022-12-18T06:12:41;13.00;;;6.97;;
12122;SDS011;6125;59.628;17.852;2022-12-18T06:15:09;13.17;;;6.93;;
12122;SDS011;6125;59.628;17.852;2022-12-18T06:17:36;11.77;;;6.50;;
12122;SDS011;6125;59.628;17.852;2022-12-18T06:20:03;10.40;;;7.37;;
12122;SDS011;6125;59.628;17.852;2022-12-18T06:22:32;12.27;;;6.93;;
12122;SDS011;6125;59.628;17.852;2022-12-18T06:24:59;12.77;;;6.80;;
12122;SDS011;6125;59.628;17.852;2022-12-18T06:27:26;12.07;;;7.43;;
12122;SDS011;6125;59.628;17.852;2022-12-18T06:29:55;12.50;;;6.50;;
12122;SDS011;6125;59.628;17.852;2022-12-18T06:32:22;12.70;;;6.47;;
12122;SDS011;6125;59.628;17.852;2022-12-18T06:34:49;14.10;;;7.20;;
12122;SDS011;6125;59.628;17.852;2022-12-18T06:37:15;9.87;;;6.27;;
12122;SDS011;6125;59.628;17.852;2022-12-18T06:39:42;11.50;;;6.57;;
12122;SDS011;6125;59.628;17.852;2022-12-18T06:42:09;10.47;;;6.50;;
12122;SDS011;6125;59.628;17.852;2022-12-18T06:44:36;14.13;;;6.30;;
12122;SDS011;6125;59.628;17.852;2022-12-18T06:47:05;14.97;;;6.93;;
12122;SDS011;6125;59.628;17.852;2022-12-18T06:49:32;12.80;;;7.07;;
12122;SDS011;6125;59.628;17.852;2022-12-18T06:51:59;14.60;;;6.73;;
12122;SDS011;6125;59.628;17.852;2022-12-18T06:54:26;13.13;;;7.50;;
12122;SDS011;6125;59.628;17.852;2022-12-18T06:56:53;10.03;;;6.67;;
12122;SDS011;6125;59.628;17.852;2022-12-18T06:59:20;13.83;;;7.00;;
12122;SDS011;6125;59.628;17.852;2022-12-18T07:01:47;15.17;;;6.87;;
12122;SDS011;6125;59.628;17.852;2022-12-18T07:04:15;11.10;;;6.83;;
12122;SDS011;6125;59.628;17.852;2022-12-18T07:06:42;15.53;;;6.70;;
12122;SDS011;6125;59.628;17.852;2022-12-18T07:09:09;13.97;;;7.17;;
12122;SDS011;6125;59.628;17.852;2022-12-18T07:11:36;10.90;;;6.03;;
12122;SDS011;6125;59.628;17.852;2022-12-18T07:14:02;12.10;;;6.80;;
12122;SDS011;6125;59.628;17.852;2022-12-18T07:16:29;13.23;;;6.70;;
12122;SDS011;6125;59.628;17.852;2022-12-18T07:18:56;10.00;;;6.50;;
12122;SDS011;6125;59.628;17.852;2022-12-18T07:21:25;13.00;;;6.60;;
12122;SDS011;6125;59.628;17.852;2022-12-18T07:23:52;13.80;;;6.90;;
12122;SDS011;6125;59.628;17.852;2022-12-18T07:26:19;12.23;;;7.13;;
12122;SDS011;6125;59.628;17.852;2022-12-18T07:28:54;15.73;;;7.10;;
12122;SDS011;6125;59.628;17.852;2022-12-18T07:31:22;15.93;;;6.77;;
12122;SDS011;6125;59.628;17.852;2022-12-18T07:33:50;13.57;;;6.40;;
12122;SDS011;6125;59.628;17.852;2022-12-18T07:36:19;13.37;;;6.77;;
12122;SDS011;6125;59.628;17.852;2022-12-18T07:38:50;12.57;;;6.33;;
12122;SDS011;6125;59.628;17.852;2022-12-18T07:41:18;13.20;;;6.67;;
12122;SDS011;6125;59.628;17.852;2022-12-18T07:43:45;11.90;;;7.00;;
12122;SDS011;6125;59.628;17.852;2022-12-18T07:46:15;14.37;;;7.40;;
12122;SDS011;6125;59.628;17.852;2022-12-18T07:48:43;13.83;;;7.83;;
12122;SDS011;6125;59.628;17.852;2022-12-18T07:51:10;12.40;;;7.13;;
12122;SDS011;6125;59.628;17.852;2022-12-18T07:53:38;13.73;;;6.93;;
12122;SDS011;6125;59.628;17.852;2022-12-18T07:56:08;12.77;;;7.00;;
12122;SDS011;6125;59.628;17.852;2022-12-18T07:58:36;12.63;;;7.03;;
12122;SDS011;6125;59.628;17.852;2022-12-18T08:01:04;11.53;;;7.30;;
12122;SDS011;6125;59.628;17.852;2022-12-18T08:03:31;14.60;;;6.93;;
12122;SDS011;6125;59.628;17.852;2022-12-18T08:05:59;12.53;;;6.77;;
12122;SDS011;6125;59.628;17.852;2022-12-18T08:08:26;11.53;;;7.33;;
12122;SDS011;6125;59.628;17.852;2022-12-18T08:10:54;11.60;;;7.13;;
12122;SDS011;6125;59.628;17.852;2022-12-18T08:13:22;13.10;;;6.60;;
12122;SDS011;6125;59.628;17.852;2022-12-18T08:15:55;15.20;;;7.03;;
12122;SDS011;6125;59.628;17.852;2022-12-18T08:18:23;11.43;;;6.97;;
12122;SDS011;6125;59.628;17.852;2022-12-18T08:20:50;14.17;;;7.60;;
12122;SDS011;6125;59.628;17.852;2022-12-18T08:23:17;17.23;;;7.43;;
12122;SDS011;6125;59.628;17.852;2022-12-18T08:25:44;15.60;;;6.90;;
12122;SDS011;6125;59.628;17.852;2022-12-18T08:28:11;12.37;;;7.27;;
12122;SDS011;6125;59.628;17.852;2022-12-18T08:30:39;11.67;;;6.80;;
12122;SDS011;6125;59.628;17.852;2022-12-18T08:33:07;14.93;;;7.33;;
12122;SDS011;6125;59.628;17.852;2022-12-18T08:35:34;14.30;;;7.80;;
12122;SDS011;6125;59.628;17.852;2022-12-18T08:38:02;13.33;;;7.20;;
12122;SDS011;6125;59.628;17.852;2022-12-18T08:40:29;16.43;;;8.10;;
12122;SDS011;6125;59.628;17.852;2022-12-18T08:42:56;11.40;;;7.40;;
12122;SDS011;6125;59.628;17.852;2022-12-18T08:45:42;16.97;;;7.57;;
12122;SDS011;6125;59.628;17.852;2022-12-18T08:48:09;14.47;;;7.57;;
12122;SDS011;6125;59.628;17.852;2022-12-18T08:50:36;14.33;;;8.13;;
12122;SDS011;6125;59.628;17.852;2022-12-18T08:53:03;12.17;;;7.40;;
12122;SDS011;6125;59.628;17.852;2022-12-18T08:55:30;15.07;;;8.40;;
12122;SDS011;6125;59.628;17.852;2022-12-18T08:57:57;17.13;;;8.67;;
12122;SDS011;6125;59.628;17.852;2022-12-18T09:00:24;13.70;;;7.80;;
12122;SDS011;6125;59.628;17.852;2022-12-18T09:02:52;18.40;;;8.20;;
12122;SDS011;6125;59.628;17.852;2022-12-18T09:05:19;14.77;;;7.80;;
12122;SDS011;6125;59.628;17.852;2022-12-18T09:07:46;15.40;;;7.77;;
12122;SDS011;6125;59.628;17.852;2022-12-18T09:10:13;14.90;;;8.50;;
12122;SDS011;6125;59.628;17.852;2022-12-18T09:12:40;14.33;;;7.63;;
12122;SDS011;6125;59.628;17.852;2022-12-18T09:15:07;15.07;;;8.37;;
12122;SDS011;6125;59.628;17.852;2022-12-18T09:17:34;13.80;;;8.07;;
12122;SDS011;6125;59.628;17.852;2022-12-18T09:20:03;22.43;;;8.77;;
12122;SDS011;6125;59.628;17.852;2022-12-18T09:22:30;15.80;;;8.03;;
12122;SDS011;6125;59.628;17.852;2022-12-18T09:24:57;13.17;;;8.57;;
12122;SDS011;6125;59.628;17.852;2022-12-18T09:27:24;12.50;;;8.43;;
12122;SDS011;6125;59.628;17.852;2022-12-18T09:29:51;13.57;;;8.27;;
12122;SDS011;6125;59.628;17.852;2022-12-18T09:32:18;18.00;;;8.43;;
12122;SDS011;6125;59.628;17.852;2022-12-18T09:34:45;14.07;;;8.13;;
12122;SDS011;6125;59.628;17.852;2022-12-18T09:37:13;14.23;;;8.37;;
12122;SDS011;6125;59.628;17.852;2022-12-18T09:39:40;14.10;;;7.67;;
12122;SDS011;6125;59.628;17.852;2022-12-18T09:42:09;13.30;;;8.20;;
12122;SDS011;6125;59.628;17.852;2022-12-18T09:44:47;17.30;;;8.33;;
12122;SDS011;6125;59.628;17.852;2022-12-18T09:47:17;12.63;;;8.23;;
12122;SDS011;6125;59.628;17.852;2022-12-18T09:49:49;17.13;;;8.30;;
12122;SDS011;6125;59.628;17.852;2022-12-18T09:52:21;14.10;;;8.23;;
12122;SDS011;6125;59.628;17.852;2022-12-18T09:54:53;16.20;;;7.93;;
12122;SDS011;6125;59.628;17.852;2022-12-18T09:57:24;14.80;;;8.67;;
12122;SDS011;6125;59.628;17.852;2022-12-18T09:59:53;13.60;;;7.77;;
12122;SDS011;6125;59.628;17.852;2022-12-18T10:02:23;11.63;;;7.30;;
12122;SDS011;6125;59.628;17.852;2022-12-18T10:04:56;15.00;;;8.30;;
12122;SDS011;6125;59.628;17.852;2022-12-18T10:07:34;9.10;;;7.00;;
12122;SDS011;6125;59.628;17.852;2022-12-18T10:10:13;12.53;;;7.57;;
12122;SDS011;6125;59.628;17.852;2022-12-18T10:12:51;13.53;;;7.23;;
12122;SDS011;6125;59.628;17.852;2022-12-18T10:15:24;16.33;;;7.27;;
12122;SDS011;6125;59.628;17.852;2022-12-18T10:17:58;15.93;;;8.30;;
12122;SDS011;6125;59.628;17.852;2022-12-18T10:20:38;11.87;;;7.50;;
12122;SDS011;6125;59.628;17.852;2022-12-18T10:23:12;11.27;;;8.10;;
12122;SDS011;6125;59.628;17.852;2022-12-18T10:25:51;13.40;;;7.73;;
12122;SDS011;6125;59.628;17.852;2022-12-18T10:28:23;11.97;;;7.50;;
12122;SDS011;6125;59.628;17.852;2022-12-18T10:30:51;14.43;;;7.80;;
12122;SDS011;6125;59.628;17.852;2022-12-18T10:33:19;14.00;;;8.47;;
12122;SDS011;6125;59.628;17.852;2022-12-18T10:35:50;16.87;;;8.63;;
12122;SDS011;6125;59.628;17.852;2022-12-18T10:38:23;26.43;;;16.00;;
12122;SDS011;6125;59.628;17.852;2022-12-18T10:40:52;15.00;;;7.67;;
12122;SDS011;6125;59.628;17.852;2022-12-18T10:43:21;13.13;;;7.87;;
12122;SDS011;6125;59.628;17.852;2022-12-18T10:46:00;13.30;;;8.10;;
12122;SDS011;6125;59.628;17.852;2022-12-18T10:48:52;14.00;;;8.13;;
12122;SDS011;6125;59.628;17.852;2022-12-18T10:51:23;12.87;;;7.80;;
12122;SDS011;6125;59.628;17.852;2022-12-18T10:53:55;14.60;;;8.00;;
12122;SDS011;6125;59.628;17.852;2022-12-18T10:56:24;10.67;;;7.77;;
12122;SDS011;6125;59.628;17.852;2022-12-18T10:58:57;16.27;;;8.30;;
12122;SDS011;6125;59.628;17.852;2022-12-18T11:01:25;15.37;;;8.20;;
12122;SDS011;6125;59.628;17.852;2022-12-18T11:04:00;15.27;;;8.33;;
12122;SDS011;6125;59.628;17.852;2022-12-18T11:06:33;15.37;;;8.57;;
12122;SDS011;6125;59.628;17.852;2022-12-18T11:09:20;21.10;;;8.53;;
12122;SDS011;6125;59.628;17.852;2022-12-18T11:11:49;12.20;;;8.03;;
12122;SDS011;6125;59.628;17.852;2022-12-18T11:14:18;12.30;;;7.57;;
12122;SDS011;6125;59.628;17.852;2022-12-18T11:16:49;11.73;;;8.50;;
12122;SDS011;6125;59.628;17.852;2022-12-18T11:19:21;13.57;;;7.53;;
12122;SDS011;6125;59.628;17.852;2022-12-18T11:21:54;13.00;;;7.47;;
12122;SDS011;6125;59.628;17.852;2022-12-18T11:24:25;13.40;;;7.90;;
12122;SDS011;6125;59.628;17.852;2022-12-18T11:26:56;15.33;;;8.00;;
12122;SDS011;6125;59.628;17.852;2022-12-18T11:29:28;13.40;;;8.03;;
12122;SDS011;6125;59.628;17.852;2022-12-18T11:34:51;14.10;;;7.90;;
12122;SDS011;6125;59.628;17.852;2022-12-18T11:37:24;12.13;;;7.20;;
12122;SDS011;6125;59.628;17.852;2022-12-18T11:39:54;13.47;;;8.00;;
12122;SDS011;6125;59.628;17.852;2022-12-18T11:42:27;10.20;;;7.23;;
12122;SDS011;6125;59.628;17.852;2022-12-18T11:44:59;14.30;;;7.20;;
12122;SDS011;6125;59.628;17.852;2022-12-18T11:47:34;12.37;;;7.03;;
12122;SDS011;6125;59.628;17.852;2022-12-18T11:50:10;15.10;;;7.80;;
12122;SDS011;6125;59.628;17.852;2022-12-18T11:52:40;13.83;;;7.87;;
12122;SDS011;6125;59.628;17.852;2022-12-18T11:55:11;14.37;;;7.30;;
12122;SDS011;6125;59.628;17.852;2022-12-18T11:57:41;19.00;;;12.17;;
12122;SDS011;6125;59.628;17.852;2022-12-18T12:00:18;20.17;;;11.63;;
12122;SDS011;6125;59.628;17.852;2022-12-18T12:02:53;14.83;;;7.47;;
12122;SDS011;6125;59.628;17.852;2022-12-18T12:05:39;15.13;;;7.67;;
12122;SDS011;6125;59.628;17.852;2022-12-18T12:08:14;12.67;;;7.10;;
12122;SDS011;6125;59.628;17.852;2022-12-18T12:10:50;13.40;;;7.43;;
12122;SDS011;6125;59.628;17.852;2022-12-18T12:13:28;9.33;;;6.20;;
12122;SDS011;6125;59.628;17.852;2022-12-18T12:16:06;12.83;;;7.37;;
12122;SDS011;6125;59.628;17.852;2022-12-18T12:18:58;13.53;;;6.87;;
12122;SDS011;6125;59.628;17.852;2022-12-18T12:21:38;12.80;;;7.30;;
12122;SDS011;6125;59.628;17.852;2022-12-18T12:24:11;11.83;;;6.87;;
12122;SDS011;6125;59.628;17.852;2022-12-18T12:26:54;15.80;;;7.43;;
12122;SDS011;6125;59.628;17.852;2022-12-18T12:29:32;11.73;;;6.73;;
12122;SDS011;6125;59.628;17.852;2022-12-18T12:32:12;18.00;;;6.73;;
12122;SDS011;6125;59.628;17.852;2022-12-18T12:34:51;12.93;;;6.40;;
12122;SDS011;6125;59.628;17.852;2022-12-18T12:37:30;13.17;;;6.70;;
12122;SDS011;6125;59.628;17.852;2022-12-18T12:40:07;11.50;;;6.70;;
12122;SDS011;6125;59.628;17.852;2022-12-18T12:42:41;16.47;;;6.93;;
12122;SDS011;6125;59.628;17.852;2022-12-18T12:45:31;14.93;;;6.13;;
12122;SDS011;6125;59.628;17.852;2022-12-18T12:48:02;15.03;;;5.67;;
12122;SDS011;6125;59.628;17.852;2022-12-18T12:50:35;10.20;;;5.53;;
12122;SDS011;6125;59.628;17.852;2022-12-18T12:53:05;11.63;;;5.80;;
12122;SDS011;6125;59.628;17.852;2022-12-18T12:55:35;10.90;;;6.37;;
12122;SDS011;6125;59.628;17.852;2022-12-18T12:58:05;10.03;;;5.37;;
12122;SDS011;6125;59.628;17.852;2022-12-18T13:00:41;10.30;;;5.23;;
12122;SDS011;6125;59.628;17.852;2022-12-18T13:03:18;9.07;;;4.70;;
12122;SDS011;6125;59.628;17.852;2022-12-18T13:05:54;11.97;;;5.60;;
12122;SDS011;6125;59.628;17.852;2022-12-18T13:08:27;10.93;;;5.17;;
12122;SDS011;6125;59.628;17.852;2022-12-18T13:10:55;8.93;;;4.97;;
12122;SDS011;6125;59.628;17.852;2022-12-18T13:13:48;9.87;;;4.87;;
12122;SDS011;6125;59.628;17.852;2022-12-18T13:16:18;8.67;;;4.83;;
12122;SDS011;6125;59.628;17.852;2022-12-18T13:18:50;7.10;;;4.13;;
12122;SDS011;6125;59.628;17.852;2022-12-18T13:21:21;10.57;;;5.70;;
12122;SDS011;6125;59.628;17.852;2022-12-18T13:23:52;9.27;;;4.70;;
12122;SDS011;6125;59.628;17.852;2022-12-18T13:26:32;7.63;;;4.27;;
12122;SDS011;6125;59.628;17.852;2022-12-18T13:29:02;11.47;;;4.80;;
12122;SDS011;6125;59.628;17.852;2022-12-18T13:34:26;7.03;;;4.23;;
12122;SDS011;6125;59.628;17.852;2022-12-18T13:36:56;7.33;;;3.87;;
12122;SDS011;6125;59.628;17.852;2022-12-18T13:39:43;8.43;;;3.50;;
12122;SDS011;6125;59.628;17.852;2022-12-18T13:45:42;8.13;;;3.67;;
12122;SDS011;6125;59.628;17.852;2022-12-18T13:48:18;10.87;;;3.33;;
12122;SDS011;6125;59.628;17.852;2022-12-18T13:50:49;8.03;;;4.00;;
12122;SDS011;6125;59.628;17.852;2022-12-18T13:53:21;6.97;;;3.20;;
12122;SDS011;6125;59.628;17.852;2022-12-18T13:55:52;8.03;;;3.23;;
12122;SDS011;6125;59.628;17.852;2022-12-18T13:58:20;8.87;;;3.10;;
12122;SDS011;6125;59.628;17.852;2022-12-18T14:00:48;12.87;;;3.00;;
12122;SDS011;6125;59.628;17.852;2022-12-18T14:03:19;11.87;;;3.50;;
12122;SDS011;6125;59.628;17.852;2022-12-18T14:05:52;9.33;;;3.73;;
12122;SDS011;6125;59.628;17.852;2022-12-18T14:08:27;10.80;;;2.57;;
12122;SDS011;6125;59.628;17.852;2022-12-18T14:11:01;5.87;;;2.80;;
12122;SDS011;6125;59.628;17.852;2022-12-18T14:13:31;8.00;;;2.20;;
12122;SDS011;6125;59.628;17.852;2022-12-18T14:16:01;6.37;;;2.73;;
12122;SDS011;6125;59.628;17.852;2022-12-18T14:18:32;7.30;;;2.73;;
12122;SDS011;6125;59.628;17.852;2022-12-18T14:21:04;6.90;;;2.00;;
12122;SDS011;6125;59.628;17.852;2022-12-18T14:23:33;5.83;;;2.23;;
12122;SDS011;6125;59.628;17.852;2022-12-18T14:26:02;8.67;;;3.23;;
12122;SDS011;6125;59.628;17.852;2022-12-18T14:28:45;8.80;;;2.77;;
12122;SDS011;6125;59.628;17.852;2022-12-18T14:31:18;3.30;;;2.00;;
12122;SDS011;6125;59.628;17.852;2022-12-18T14:33:45;6.50;;;2.67;;
12122;SDS011;6125;59.628;17.852;2022-12-18T14:36:14;5.80;;;2.60;;
12122;SDS011;6125;59.628;17.852;2022-12-18T14:38:43;4.37;;;2.17;;
12122;SDS011;6125;59.628;17.852;2022-12-18T14:41:15;5.27;;;2.17;;
12122;SDS011;6125;59.628;17.852;2022-12-18T14:43:44;4.00;;;2.13;;
12122;SDS011;6125;59.628;17.852;2022-12-18T14:46:27;4.37;;;2.50;;
12122;SDS011;6125;59.628;17.852;2022-12-18T14:48:56;9.53;;;2.30;;
12122;SDS011;6125;59.628;17.852;2022-12-18T14:51:23;5.60;;;2.20;;
12122;SDS011;6125;59.628;17.852;2022-12-18T14:53:53;6.77;;;3.20;;
12122;SDS011;6125;59.628;17.852;2022-12-18T14:56:22;7.77;;;2.77;;
12122;SDS011;6125;59.628;17.852;2022-12-18T14:58:52;7.40;;;2.53;;
12122;SDS011;6125;59.628;17.852;2022-12-18T15:01:25;4.87;;;2.00;;
12122;SDS011;6125;59.628;17.852;2022-12-18T15:03:56;9.43;;;3.23;;